Relevés horaires Saint-Mandrier-sur-Mer - Cap Cépet (France)


Relevés horaires à Saint-Mandrier-sur-Mer - Cap Cépet - Mardi 28 Janv. 2020
Heure UTC1 Température [°C] Vent [km/h] Hum. [%] Pres.4 [hPa] Visi. [Km] Nébu. [octa] Préc.5 [mm] Cond.
2m. Res. Ros. Dir.2 Vit. Moy. Raf.3
23:00 11.6 8.7 4.6 NO 29.6 -- 42.6 62 1015.7(0.5/3h) -- -- -- --
22:00 11.6 9.2 4.3 NO 22.2 -- 37.0 61 1015.9(1.3/3h) -- -- -- --
21:00 12.0 9.4 5.2 NO 25.9 -- 44.4 63 1015.1(0.6/3h) -- -- -- --
20:00 12.3 9.7 4.5 NO 27.8 -- 38.9 59 1015.1(1.5/3h) -- -- -- --
19:00 12.1 9.6 7.6 NO 25.9 -- 37.0 74 1014.5(0.8/3h) -- -- -- --
18:00 12.4 9.8 6.4 NO 27.8 -- 44.4 67 1014.4(0.6/3h) -- -- -- --
17:00 12.4 9.6 6.2 NO 31.5 -- 46.3 66 1013.6(0.0/3h) -- -- -- --
16:00 12.8 10.4 7.7 NO 27.8 -- 42.6 71 1013.7(-0.1/3h) -- -- -- --
15:00 12.9 10.4 7.8 NO 29.6 -- 42.6 71 1013.8(-0.1/3h) 20 5/8 -- --
14:00 13.2 11.1 7.8 NO 24.1 -- 38.9 70 1013.5(-0.9/3h) -- -- -- --
13:00 14.0 12 5.1 NO 25.9 -- 42.6 55 1013.7(-1.6/3h) -- -- -- --
12:00 14.1 12.5 6.4 NNO 20.4 -- 31.5 60 1013.8(-1.4/3h) -- -- -- --
11:00 13.1 10.9 6.9 NNO 25.9 -- 35.2 66 1014.5(-0.3/3h) -- -- -- --
10:00 11.9 9.7 8.2 NO 20.4 -- 31.5 78 1015.5(1.1/3h) -- -- -- --
09:00 10.8 8.7 8.7 NO 16.7 -- 22.2 87 1015.4(1.0/3h) -- -- -- --
08:00 10.4 8.9 8.3 NO 11.1 -- 16.7 87 1014.9(0.8/3h) -- -- -- --
07:00 10.1 8.6 8.4 NO 11.1 -- 14.8 89 1014.4(0.1/3h) -- -- -- --
06:00 10.2 9 8.8 NO 9.3 -- 13.0 91 1014.4(-0.3/3h) -- -- -- --
05:00 9.5 8.6 8.4 NO 7.4 -- 11.1 93 1014.2(-0.9/3h) -- -- -- --
04:00 9.6 8.3 8.5 NO 9.3 -- 11.1 93 1014.4(-0.4/3h) -- -- -- --
03:00 9.1 8.1 8.2 NO 7.4 -- 9.3 94 1014.8(-0.4/3h) -- -- -- --
02:00 9.4 9.4 8.0 NO 3.7 -- 7.4 91 1015.1(-0.7/3h) -- -- -- --
01:00 10.2 9.4 8.1 O 7.4 -- 9.3 87 1014.7(-1.3/3h) -- -- -- --
00:00 10.1 9.3 8.2 ONO 7.4 -- 11.1 88 1015.2(-1.4/3h) -- -- -- --

1 Coordinated Universal Time. Actuellement il est 23:00 locale et 22:00 UTC.

2 Le vent souffle depuis la direction indiquée vers la direction oposée.

3 Les rafales max. sont disponible 40 min après l'heure du relevé.

4 Pour les stations d'altitude (plus de 600m) le géopotentiel du niveau le plus proche de la pression obligatoire est indiqué.

5 Les stations disposant d'un diffuseur peuvent indiquer "trace". Cela signifie que des précipitations ont touchés le sol mais que la quantité est inférieure à 0.1 mm.

Récapitulatif de la journée
Température [°C] Vent [km/h] Ensoleillement4 [h] Precipitations totale5 [mm] Pression [Hpa]
Min1 Max.2 Moy.3 Max. Min Max.
9.0 14.6 0 46.3 0 h 0 min 0 1013.5 1015.9

1 Température minimale relevée entre 18:00 UTC la veille et 18:00 UTC le jour donné.

2 Température maximale relevée entre 06:00 UTC le jour donné et 06:00 UTC le lendemain.

3 Vent moyen de la journée basé sur les relevés horaires.

4 Ensoleillement en heures relevé entre 06:00 UTC la veille et 06:00 UTC le jour donné.

5 Précipitations totales tombées entre 06:00 UTC la jour donné et 06:00 UTC le lendemain.

Graphiques horaires